Time;durP1;ratioP1;P1;durP2;ratioP2;P2;SDS_P1;SDS_P2;PMS_P1;PMS_P2;Temp;Humidity;BMP_temperature;BMP_pressure;BME280_temperature;BME280_humidity;BME280_pressure;Samples;Min_cycle;Max_cycle;Signal;HPM_P1;HPM_P2
2022/11/01 00:01:31;;;;;;;10.02;9.35;;;8.90;99.90;;;;;;4230229;28;20035;-82
2022/11/01 00:03:51;;;;;;;8.23;7.82;;;8.90;99.90;;;;;;4229152;28;20069;-82
2022/11/01 00:06:11;;;;;;;9.25;8.50;;;9.00;99.90;;;;;;4230439;28;20042;-82
2022/11/01 00:08:31;;;;;;;7.63;7.05;;;9.10;99.90;;;;;;4213295;28;20051;-82
2022/11/01 00:10:51;;;;;;;7.57;6.85;;;8.80;99.90;;;;;;4212178;28;20455;-82
2022/11/01 00:13:11;;;;;;;8.90;8.07;;;8.70;99.90;;;;;;4229256;28;20051;-82
2022/11/01 00:15:30;;;;;;;9.60;8.75;;;8.40;99.90;;;;;;4230366;28;20050;-82
2022/11/01 00:17:50;;;;;;;9.63;8.95;;;8.30;99.90;;;;;;4223833;28;20043;-82
2022/11/01 00:20:10;;;;;;;16.13;14.55;;;8.20;99.90;;;;;;4220658;28;20097;-82
2022/11/01 00:22:30;;;;;;;15.40;13.07;;;8.10;99.90;;;;;;4229983;28;20581;-82
2022/11/01 00:24:50;;;;;;;32.45;26.10;;;8.00;99.90;;;;;;4228941;28;20157;-82
2022/11/01 00:27:13;;;;;;;21.25;18.50;;;8.00;99.90;;;;;;4229094;28;20086;-82
2022/11/01 00:29:33;;;;;;;15.40;13.95;;;8.00;99.90;;;;;;4228971;28;20058;-82
2022/11/01 00:31:52;;;;;;;12.40;8.98;;;8.00;99.90;;;;;;4230016;28;20042;-82
2022/11/01 00:34:12;;;;;;;37.20;10.68;;;8.00;99.90;;;;;;4228226;28;20051;-82
2022/11/01 00:36:33;;;;;;;19.55;7.97;;;8.00;99.90;;;;;;4227264;28;20053;-82
2022/11/01 00:38:53;;;;;;;7.47;7.20;;;7.80;99.90;;;;;;4230362;28;20059;-82
2022/11/01 00:41:14;;;;;;;9.68;8.93;;;7.90;99.90;;;;;;4229210;28;20059;-82
2022/11/01 00:43:35;;;;;;;8.90;8.43;;;8.10;99.90;;;;;;4226687;28;20082;-82
2022/11/01 00:45:55;;;;;;;7.07;6.85;;;8.10;99.90;;;;;;4214460;28;20123;-82
2022/11/01 00:48:15;;;;;;;9.23;8.63;;;7.90;99.90;;;;;;4230260;28;20063;-82
2022/11/01 00:50:34;;;;;;;10.13;7.28;;;8.00;99.90;;;;;;4229515;28;20047;-82
2022/11/01 00:52:54;;;;;;;8.55;7.75;;;8.00;99.90;;;;;;4217114;28;20073;-82
2022/11/01 00:55:14;;;;;;;7.57;7.28;;;8.00;99.90;;;;;;4226131;28;20361;-82
2022/11/01 00:57:33;;;;;;;7.80;7.47;;;8.20;99.90;;;;;;4227195;28;20231;-82
2022/11/01 00:59:53;;;;;;;7.18;6.88;;;8.30;99.90;;;;;;4221149;28;20078;-82
2022/11/01 01:02:18;;;;;;;6.68;6.32;;;8.40;99.90;;;;;;4216198;28;20235;-82
2022/11/01 01:04:41;;;;;;;7.07;6.53;;;8.50;99.90;;;;;;4227600;28;20089;-82
2022/11/01 01:07:00;;;;;;;7.72;7.43;;;8.40;99.90;;;;;;4226678;28;20050;-82
2022/11/01 01:09:20;;;;;;;6.85;6.55;;;8.30;99.90;;;;;;4225409;28;20043;-82
2022/11/01 01:11:40;;;;;;;7.60;7.28;;;8.40;99.90;;;;;;4231847;28;20452;-82
2022/11/01 01:14:00;;;;;;;6.50;6.20;;;8.40;99.90;;;;;;4218148;28;20106;-82
2022/11/01 01:16:19;;;;;;;6.82;6.32;;;8.40;99.90;;;;;;4227638;28;20107;-82
2022/11/01 01:18:39;;;;;;;6.03;5.88;;;8.30;99.90;;;;;;4218098;28;20083;-82
2022/11/01 01:21:00;;;;;;;7.07;6.68;;;8.30;99.90;;;;;;4232411;28;20074;-82
2022/11/01 01:23:19;;;;;;;7.03;6.72;;;8.30;99.90;;;;;;4218736;28;20280;-82
2022/11/01 01:25:40;;;;;;;7.32;6.80;;;8.30;99.90;;;;;;4221999;28;20068;-82
2022/11/01 01:28:00;;;;;;;8.07;7.60;;;8.20;99.90;;;;;;4230682;28;20053;-82
2022/11/01 01:30:21;;;;;;;6.05;5.75;;;8.20;99.90;;;;;;4225466;28;20043;-82
2022/11/01 01:32:41;;;;;;;7.13;6.65;;;8.30;99.90;;;;;;4215750;28;20255;-82
2022/11/01 01:35:02;;;;;;;6.40;5.95;;;8.30;99.90;;;;;;4231550;28;20047;-82
2022/11/01 01:37:22;;;;;;;6.38;5.97;;;8.10;99.90;;;;;;4218649;28;20122;-82
2022/11/01 01:39:42;;;;;;;6.80;6.53;;;7.90;99.90;;;;;;4224976;28;20093;-82
2022/11/01 01:42:12;;;;;;;5.90;5.60;;;7.80;99.90;;;;;;4217573;28;20043;-82
2022/11/01 01:44:50;;;;;;;8.00;7.45;;;7.90;99.90;;;;;;4224090;28;20069;-82
2022/11/01 01:47:32;;;;;;;6.35;6.15;;;7.90;99.90;;;;;;4232451;28;20085;-82
2022/11/01 01:49:57;;;;;;;6.13;5.25;;;7.90;99.90;;;;;;4232785;28;20081;-82
2022/11/01 01:52:18;;;;;;;6.80;6.38;;;7.80;99.90;;;;;;4219564;28;20377;-82
2022/11/01 01:54:39;;;;;;;5.93;5.72;;;7.70;99.90;;;;;;4230365;28;20137;-82
2022/11/01 01:56:59;;;;;;;4.78;4.55;;;7.60;99.90;;;;;;4216925;28;20044;-82
2022/11/01 01:59:19;;;;;;;4.70;4.40;;;7.50;99.90;;;;;;4219268;28;20109;-82
2022/11/01 02:01:39;;;;;;;4.88;4.78;;;7.50;99.90;;;;;;4231992;28;20269;-82
2022/11/01 02:04:01;;;;;;;5.30;5.10;;;7.50;99.90;;;;;;4230920;28;20047;-82
2022/11/01 02:06:22;;;;;;;6.47;6.05;;;7.50;99.90;;;;;;4218672;28;20043;-82
2022/11/01 02:08:56;;;;;;;3.97;3.88;;;7.40;99.90;;;;;;4222921;28;20047;-82
2022/11/01 02:11:17;;;;;;;;;;;7.40;99.90;;;;;;4233431;28;20096;-82
2022/11/01 02:13:37;;;;;;;6.97;6.78;;;7.20;99.90;;;;;;4230193;28;20194;-81
2022/11/01 02:16:25;;;;;;;7.75;7.45;;;7.10;99.90;;;;;;4228466;28;20059;-82
2022/11/01 02:19:06;;;;;;;8.32;7.93;;;6.90;99.90;;;;;;4215209;28;20071;-82
2022/11/01 02:22:11;;;;;;;8.10;6.97;;;6.70;99.90;;;;;;4230599;28;20038;-82
2022/11/01 02:24:43;;;;;;;7.72;6.30;;;6.70;99.90;;;;;;4231232;28;20034;-82
2022/11/01 02:27:13;;;;;;;6.97;6.67;;;6.60;99.90;;;;;;4230601;28;20043;-82
2022/11/01 02:29:51;;;;;;;6.72;6.47;;;6.70;99.90;;;;;;4219412;28;20034;-82
2022/11/01 02:32:17;;;;;;;5.32;5.07;;;6.90;99.90;;;;;;4228578;28;20452;-82
2022/11/01 02:34:46;;;;;;;8.70;7.07;;;6.90;99.90;;;;;;4219792;28;20239;-82
2022/11/01 02:37:33;;;;;;;4.80;4.63;;;7.00;99.90;;;;;;4218288;28;20258;-82
2022/11/01 02:40:04;;;;;;;5.43;5.28;;;7.00;99.90;;;;;;4198967;28;20089;-82
2022/11/01 02:42:41;;;;;;;6.30;5.85;;;7.20;99.90;;;;;;4224358;28;20074;-82
2022/11/01 02:45:27;;;;;;;5.35;5.25;;;7.30;99.90;;;;;;4231868;28;20074;-81
2022/11/01 02:47:47;;;;;;;6.32;6.22;;;7.40;99.90;;;;;;4229572;28;20078;-82
2022/11/01 02:50:09;;;;;;;5.63;5.32;;;7.30;99.90;;;;;;4231982;28;20047;-82
2022/11/01 02:52:31;;;;;;;5.80;5.70;;;7.30;99.90;;;;;;4230143;28;20077;-82
2022/11/01 02:54:56;;;;;;;6.85;6.50;;;7.30;99.90;;;;;;4231244;28;20392;-82
2022/11/01 02:57:16;;;;;;;6.65;6.45;;;7.30;99.90;;;;;;4228606;28;20412;-82
2022/11/01 02:59:47;;;;;;;6.90;6.50;;;7.30;99.90;;;;;;4219697;28;20396;-82
2022/11/01 03:02:38;;;;;;;9.15;7.45;;;7.20;99.90;;;;;;4216353;28;20231;-82
2022/11/01 03:04:59;;;;;;;50.28;9.32;;;6.90;99.90;;;;;;4213309;28;20283;-81
2022/11/01 03:07:19;;;;;;;27.25;8.52;;;6.60;99.90;;;;;;4228667;28;20085;-82
2022/11/01 03:09:40;;;;;;;105.00;10.07;;;6.30;99.90;;;;;;4230723;28;20372;-82
2022/11/01 03:12:04;;;;;;;8.50;8.10;;;6.20;99.90;;;;;;4221874;28;20058;-82
2022/11/01 03:14:29;;;;;;;7.90;7.57;;;6.20;99.90;;;;;;4229720;28;20058;-82
2022/11/01 03:17:05;;;;;;;7.63;7.43;;;6.40;99.90;;;;;;4229648;28;20081;-81
2022/11/01 03:19:50;;;;;;;6.38;6.07;;;6.20;99.90;;;;;;4231492;28;20076;-82
2022/11/01 03:22:33;;;;;;;7.22;6.97;;;6.40;99.90;;;;;;4223149;28;20054;-82
2022/11/01 03:25:37;;;;;;;5.87;5.67;;;6.60;99.90;;;;;;4214028;28;20086;-81
2022/11/01 03:27:51;;;;;;;5.05;4.85;;;6.70;99.90;;;;;;4232926;28;20278;-82
2022/11/01 03:30:13;;;;;;;4.75;4.65;;;6.70;99.90;;;;;;4229158;28;20046;-82
2022/11/01 03:32:55;;;;;;;24.63;5.85;;;6.70;99.90;;;;;;4228043;28;20043;-82
2022/11/01 03:35:20;;;;;;;5.20;4.57;;;6.60;99.90;;;;;;4215416;28;20155;-82
2022/11/01 03:37:44;;;;;;;4.22;4.22;;;6.60;99.90;;;;;;4229709;28;20039;-81
2022/11/01 03:40:06;;;;;;;5.13;4.75;;;6.60;99.90;;;;;;4228504;28;20047;-81
2022/11/01 03:42:26;;;;;;;4.17;3.87;;;6.60;99.90;;;;;;4229941;28;20081;-82
2022/11/01 03:44:51;;;;;;;4.53;4.30;;;6.60;99.90;;;;;;4230467;28;20046;-81
2022/11/01 03:47:12;;;;;;;5.57;5.25;;;6.60;99.90;;;;;;4228062;28;20043;-81
2022/11/01 03:49:32;;;;;;;4.40;3.78;;;6.70;99.90;;;;;;4226057;28;20097;-82
2022/11/01 03:51:51;;;;;;;3.70;3.60;;;6.70;99.90;;;;;;4213943;28;20401;-81
2022/11/01 03:54:11;;;;;;;5.80;5.43;;;6.60;99.90;;;;;;4224027;28;20272;-81
2022/11/01 03:56:31;;;;;;;6.13;5.95;;;6.30;99.90;;;;;;4227527;28;20047;-81
2022/11/01 03:58:50;;;;;;;5.38;5.28;;;6.10;99.90;;;;;;4221019;28;20047;-81
2022/11/01 04:01:13;;;;;;;8.38;7.72;;;6.30;99.90;;;;;;4222708;28;20407;-81
2022/11/01 04:03:33;;;;;;;45.22;12.02;;;6.20;99.90;;;;;;4211425;28;20047;-82
2022/11/01 04:05:53;;;;;;;116.20;14.40;;;5.90;99.90;;;;;;4229394;28;20054;-81
2022/11/01 04:08:12;;;;;;;49.65;12.02;;;5.70;99.90;;;;;;4227465;28;20054;-81
2022/11/01 04:10:33;;;;;;;44.42;13.20;;;5.50;99.90;;;;;;4230514;28;20146;-81
2022/11/01 04:12:52;;;;;;;44.78;10.57;;;5.50;99.90;;;;;;4227933;28;20039;-81
2022/11/01 04:20:53;;;;;;;4.78;4.57;;;5.40;99.90;;;;;;4227652;28;20051;-81
2022/11/01 04:23:13;;;;;;;4.10;3.88;;;5.70;99.90;;;;;;4215632;28;20051;-81
2022/11/01 04:25:33;;;;;;;3.83;3.83;;;6.00;99.90;;;;;;4225089;28;20055;-81
2022/11/01 04:27:56;;;;;;;4.72;4.63;;;6.00;99.90;;;;;;4218840;28;20047;-81
2022/11/01 04:30:16;;;;;;;4.05;3.88;;;6.00;99.90;;;;;;4215842;28;20081;-81
2022/11/01 04:32:36;;;;;;;4.20;4.00;;;5.90;99.90;;;;;;4215817;28;20303;-81
2022/11/01 04:34:55;;;;;;;4.20;4.10;;;5.90;99.90;;;;;;4229246;28;20051;-81
2022/11/01 04:37:15;;;;;;;3.70;3.70;;;6.00;99.90;;;;;;4228763;28;20116;-81
2022/11/01 04:39:37;;;;;;;3.88;3.78;;;6.10;99.90;;;;;;4220952;28;20078;-81
2022/11/01 04:41:58;;;;;;;4.63;4.53;;;6.00;99.90;;;;;;4229578;28;20061;-81
2022/11/01 04:44:18;;;;;;;4.85;4.63;;;6.00;99.90;;;;;;4228193;28;20063;-81
2022/11/01 04:46:38;;;;;;;5.22;4.85;;;6.00;99.90;;;;;;4229688;28;20066;-81
2022/11/01 04:48:57;;;;;;;4.40;4.28;;;6.20;99.90;;;;;;4230872;28;20050;-81
2022/11/01 04:51:17;;;;;;;4.68;4.57;;;6.00;99.90;;;;;;4232587;28;20054;-81
2022/11/01 04:53:38;;;;;;;4.63;4.28;;;6.00;99.90;;;;;;4226905;28;20166;-81
2022/11/01 04:55:57;;;;;;;4.43;4.32;;;6.10;99.90;;;;;;4229478;28;20274;-81
2022/11/01 04:58:17;;;;;;;4.57;4.47;;;6.00;99.90;;;;;;4219502;28;20127;-81
2022/11/01 05:00:37;;;;;;;4.70;4.50;;;5.80;99.90;;;;;;4216342;28;20366;-81
2022/11/01 05:03:06;;;;;;;4.43;4.32;;;5.90;99.90;;;;;;4224108;28;20051;-81
2022/11/01 05:05:26;;;;;;;6.90;6.70;;;5.90;99.90;;;;;;4231048;28;20042;-81
2022/11/01 05:07:45;;;;;;;7.75;7.50;;;5.80;99.90;;;;;;4232806;28;20080;-81
2022/11/01 05:10:06;;;;;;;44.85;9.15;;;5.70;99.90;;;;;;4230717;28;20414;-81
2022/11/01 05:12:26;;;;;;;8.77;7.93;;;5.50;99.90;;;;;;4230603;28;20239;-81
2022/11/01 05:14:46;;;;;;;78.97;9.60;;;5.40;99.90;;;;;;4232181;28;20085;-81
2022/11/01 05:17:06;;;;;;;25.60;9.45;;;5.30;99.90;;;;;;4224423;28;20078;-81
2022/11/01 05:19:26;;;;;;;153.40;13.75;;;5.10;99.90;;;;;;4227907;28;20107;-81
2022/11/01 05:21:45;;;;;;;98.93;13.40;;;5.10;99.90;;;;;;4231157;28;20047;-81
2022/11/01 05:24:06;;;;;;;23.08;11.90;;;5.00;99.90;;;;;;4232852;28;20373;-81
2022/11/01 05:26:26;;;;;;;214.25;18.45;;;4.90;99.90;;;;;;4230960;28;20054;-81
2022/11/01 05:28:46;;;;;;;35.72;10.18;;;5.00;99.90;;;;;;4231109;28;20492;-81
2022/11/01 05:31:06;;;;;;;58.78;10.15;;;4.90;99.90;;;;;;4232402;28;20051;-81
2022/11/01 05:33:27;;;;;;;7.55;7.35;;;4.80;99.90;;;;;;4215579;28;20052;-81
2022/11/01 05:35:47;;;;;;;6.60;6.50;;;4.90;99.90;;;;;;4230267;28;20050;-81
2022/11/01 05:38:08;;;;;;;5.97;5.88;;;5.00;99.90;;;;;;4220175;28;20051;-81
2022/11/01 05:40:29;;;;;;;37.00;7.20;;;5.30;99.90;;;;;;4224464;28;20386;-81
2022/11/01 05:42:49;;;;;;;12.48;5.82;;;5.40;99.90;;;;;;4231012;28;20119;-81
2022/11/01 05:45:10;;;;;;;4.47;4.25;;;5.30;99.90;;;;;;4227981;28;20054;-81
2022/11/01 05:47:31;;;;;;;4.57;4.47;;;5.40;99.90;;;;;;4220049;28;20071;-81
2022/11/01 05:49:52;;;;;;;4.50;4.37;;;5.40;99.90;;;;;;4223952;28;20097;-81
2022/11/01 05:52:12;;;;;;;4.47;4.38;;;5.40;99.90;;;;;;4230311;28;20265;-81
2022/11/01 05:54:31;;;;;;;4.75;4.60;;;5.50;99.90;;;;;;4228345;28;20047;-81
2022/11/01 05:56:51;;;;;;;4.47;4.38;;;5.60;99.90;;;;;;4231163;28;20057;-81
2022/11/01 05:59:11;;;;;;;4.38;4.28;;;5.50;99.90;;;;;;4231265;28;20078;-81
2022/11/01 06:01:32;;;;;;;34.88;8.38;;;5.40;99.90;;;;;;4229901;28;20089;-81
2022/11/01 06:03:52;;;;;;;143.10;11.95;;;5.20;99.90;;;;;;4230729;28;20073;-81
2022/11/01 06:06:11;;;;;;;21.33;7.32;;;5.00;99.90;;;;;;4231574;28;20039;-81
2022/11/01 06:08:31;;;;;;;128.60;9.68;;;4.80;99.90;;;;;;4230347;28;20047;-81
2022/11/01 06:10:50;;;;;;;7.68;7.07;;;4.60;99.90;;;;;;4227649;28;20302;-81
2022/11/01 06:13:11;;;;;;;91.60;8.73;;;4.50;99.90;;;;;;4218970;28;20082;-81
2022/11/01 06:15:31;;;;;;;136.18;10.38;;;4.70;99.90;;;;;;4231583;28;20059;-81
2022/11/01 06:17:57;;;;;;;61.60;7.25;;;4.60;99.90;;;;;;4230921;28;20043;-81
2022/11/01 06:20:17;;;;;;;145.52;10.80;;;4.50;99.90;;;;;;4229314;28;20059;-81
2022/11/01 06:22:36;;;;;;;51.58;7.43;;;4.50;99.90;;;;;;4232262;28;20415;-81
2022/11/01 06:24:57;;;;;;;8.25;7.90;;;4.50;99.90;;;;;;4225087;28;20050;-81
2022/11/01 06:27:17;;;;;;;5.32;5.22;;;4.80;99.90;;;;;;4213701;28;20038;-81
2022/11/01 06:29:36;;;;;;;53.35;7.55;;;4.80;99.90;;;;;;4230784;28;20120;-81
2022/11/01 06:31:56;;;;;;;15.18;7.75;;;4.80;99.90;;;;;;4223734;28;20366;-81
2022/11/01 06:34:16;;;;;;;71.68;9.68;;;4.60;99.90;;;;;;4229537;28;20049;-81
2022/11/01 06:36:35;;;;;;;52.33;7.50;;;4.70;99.90;;;;;;4216146;28;20251;-81
2022/11/01 06:38:55;;;;;;;30.83;8.95;;;4.70;99.90;;;;;;4223031;28;20252;-81
2022/11/01 06:41:15;;;;;;;7.65;6.93;;;4.70;99.90;;;;;;4223612;28;20046;-81
2022/11/01 06:43:35;;;;;;;16.73;7.18;;;4.80;99.90;;;;;;4217711;28;20429;-81
2022/11/01 06:45:58;;;;;;;23.23;6.78;;;4.70;99.90;;;;;;4229731;28;20034;-81
2022/11/01 06:48:18;;;;;;;;;;;4.80;99.90;;;;;;4221179;28;20417;-81
2022/11/01 06:50:38;;;;;;;19.08;5.72;;;4.80;99.90;;;;;;4229551;28;19930;-81
2022/11/01 06:52:59;;;;;;;5.18;4.90;;;4.80;99.90;;;;;;4217715;28;20082;-81
2022/11/01 06:55:19;;;;;;;57.80;5.68;;;4.90;99.90;;;;;;4218290;28;20074;-81
2022/11/01 06:57:39;;;;;;;10.55;3.83;;;5.00;99.90;;;;;;4231785;28;20034;-81
2022/11/01 06:59:59;;;;;;;5.78;4.55;;;5.20;99.90;;;;;;4224002;28;20050;-81
2022/11/01 07:02:19;;;;;;;4.60;4.50;;;5.40;99.90;;;;;;4221838;28;20043;-81
2022/11/01 07:04:40;;;;;;;3.80;3.80;;;5.60;99.90;;;;;;4219183;28;20098;-81
2022/11/01 07:07:00;;;;;;;3.58;3.58;;;5.90;99.90;;;;;;4215824;28;20232;-81
2022/11/01 07:09:20;;;;;;;3.78;3.67;;;5.90;99.90;;;;;;4229434;28;20386;-81
2022/11/01 07:11:39;;;;;;;2.58;2.58;;;6.10;99.90;;;;;;4228188;28;20125;-82
2022/11/01 07:13:59;;;;;;;3.95;3.95;;;6.10;99.90;;;;;;4231500;28;20059;-82
2022/11/01 07:16:20;;;;;;;3.63;3.53;;;6.20;99.90;;;;;;4228783;28;20055;-82
2022/11/01 07:18:40;;;;;;;3.67;3.67;;;6.20;99.90;;;;;;4229242;28;20085;-81
2022/11/01 07:21:03;;;;;;;4.50;4.30;;;6.10;99.90;;;;;;4222162;28;20070;-81
2022/11/01 07:23:23;;;;;;;5.65;5.50;;;6.10;99.90;;;;;;4222509;28;20047;-82
2022/11/01 07:25:43;;;;;;;4.00;3.90;;;6.10;99.90;;;;;;4228277;28;20082;-82
2022/11/01 07:28:04;;;;;;;5.63;5.53;;;6.10;99.90;;;;;;4227869;28;20175;-82
2022/11/01 07:30:24;;;;;;;4.93;4.82;;;6.10;99.90;;;;;;4233937;28;20106;-82
2022/11/01 07:32:44;;;;;;;7.55;7.43;;;6.30;99.90;;;;;;4230274;28;20081;-83
2022/11/01 07:35:04;;;;;;;10.93;8.93;;;6.30;99.90;;;;;;4229371;28;20115;-82
2022/11/01 07:37:28;;;;;;;13.75;9.18;;;6.20;99.90;;;;;;4226747;28;20055;-83
2022/11/01 07:39:48;;;;;;;50.22;10.38;;;6.20;99.90;;;;;;4216796;28;20071;-82
2022/11/01 07:42:08;;;;;;;7.82;7.35;;;6.20;99.90;;;;;;4229861;28;20046;-82
2022/11/01 07:44:28;;;;;;;95.95;9.95;;;6.20;99.90;;;;;;4221105;28;20071;-82
2022/11/01 07:46:48;;;;;;;51.05;9.32;;;6.30;99.90;;;;;;4221506;28;20070;-82
2022/11/01 07:49:07;;;;;;;42.95;7.75;;;6.40;99.90;;;;;;4229361;28;20121;-82
2022/11/01 07:51:27;;;;;;;95.35;9.25;;;6.30;99.90;;;;;;4226373;28;20455;-82
2022/11/01 07:53:47;;;;;;;5.03;4.70;;;6.30;99.90;;;;;;4219819;28;20051;-82
2022/11/01 07:56:07;;;;;;;14.73;5.43;;;6.30;99.90;;;;;;4228803;28;20062;-82
2022/11/01 07:58:27;;;;;;;14.20;5.00;;;6.50;99.90;;;;;;4225112;28;20116;-83
2022/11/01 08:00:47;;;;;;;26.33;4.53;;;6.60;99.90;;;;;;4227350;28;20062;-82
2022/11/01 08:03:12;;;;;;;20.35;5.10;;;6.60;99.90;;;;;;4221758;28;20373;-83
2022/11/01 08:05:33;;;;;;;8.55;4.93;;;6.70;99.90;;;;;;4230682;28;20042;-82
2022/11/01 08:07:53;;;;;;;4.20;4.10;;;6.80;99.90;;;;;;4226085;28;20358;-82
2022/11/01 08:10:13;;;;;;;4.95;4.60;;;7.00;99.90;;;;;;4228536;28;20043;-83
2022/11/01 08:12:34;;;;;;;4.78;4.43;;;7.20;99.90;;;;;;4215716;28;20428;-82
2022/11/01 08:14:54;;;;;;;7.32;6.80;;;7.40;99.90;;;;;;4228090;28;20042;-82
2022/11/01 08:17:14;;;;;;;4.85;4.65;;;7.60;99.90;;;;;;4215336;28;20116;-83
2022/11/01 08:19:33;;;;;;;6.28;6.00;;;7.70;99.90;;;;;;4222200;28;20135;-83
2022/11/01 08:21:57;;;;;;;4.55;4.30;;;7.80;99.90;;;;;;4214741;28;20115;-82
2022/11/01 08:24:16;;;;;;;;;;;7.80;99.90;;;;;;4226267;28;20246;-82
2022/11/01 08:26:36;;;;;;;3.40;3.30;;;7.80;99.90;;;;;;4216737;28;20007;-83
2022/11/01 08:28:56;;;;;;;3.63;3.53;;;7.90;99.90;;;;;;4218578;28;20056;-82
2022/11/01 08:31:16;;;;;;;3.92;3.83;;;8.10;99.90;;;;;;4215568;28;20306;-83
2022/11/01 08:33:36;;;;;;;4.53;4.22;;;8.40;99.90;;;;;;4228976;28;20138;-82
2022/11/01 08:35:55;;;;;;;4.03;3.92;;;8.60;99.90;;;;;;4216433;28;20099;-83
2022/11/01 08:38:15;;;;;;;3.25;3.15;;;8.80;99.90;;;;;;4229810;28;20074;-83
2022/11/01 08:40:35;;;;;;;3.70;3.40;;;9.10;99.90;;;;;;4228656;28;20054;-82
2022/11/01 08:42:55;;;;;;;4.40;4.20;;;9.20;99.90;;;;;;4215259;28;20381;-82
2022/11/01 08:45:15;;;;;;;4.95;3.28;;;9.30;99.90;;;;;;4215997;28;20047;-83
2022/11/01 08:47:35;;;;;;;3.65;3.30;;;9.30;99.90;;;;;;4229258;28;20073;-83
2022/11/01 08:49:55;;;;;;;6.13;3.55;;;9.80;99.90;;;;;;4222306;28;20047;-83
2022/11/01 08:52:14;;;;;;;3.33;3.22;;;10.20;99.90;;;;;;4227930;28;20076;-83
2022/11/01 08:54:36;;;;;;;3.10;3.00;;;10.60;99.90;;;;;;4231100;28;20051;-83
2022/11/01 08:56:55;;;;;;;2.92;2.88;;;10.90;99.90;;;;;;4219973;28;20038;-83
2022/11/01 08:59:15;;;;;;;4.20;2.80;;;11.00;99.90;;;;;;4226144;28;20046;-82
2022/11/01 09:01:37;;;;;;;3.58;3.33;;;10.80;99.90;;;;;;4229084;28;20078;-82
2022/11/01 09:04:00;;;;;;;2.78;2.55;;;10.70;99.90;;;;;;4217008;28;20112;-83
2022/11/01 09:06:20;;;;;;;3.90;3.65;;;10.70;99.90;;;;;;4229759;28;20035;-83
2022/11/01 09:08:39;;;;;;;3.75;3.65;;;10.70;99.90;;;;;;4229501;28;20050;-83
2022/11/01 09:10:59;;;;;;;3.47;3.35;;;10.80;99.90;;;;;;4229849;28;20070;-82
2022/11/01 09:13:19;;;;;;;4.32;4.13;;;11.00;99.90;;;;;;4228596;28;20047;-82
2022/11/01 09:15:39;;;;;;;2.67;2.67;;;11.10;99.90;;;;;;4226649;28;20251;-82
2022/11/01 09:18:05;;;;;;;14.13;4.32;;;11.10;99.90;;;;;;4220482;28;20435;-82
2022/11/01 09:20:26;;;;;;;3.35;3.05;;;11.30;99.90;;;;;;4232430;28;20225;-83
2022/11/01 09:22:51;;;;;;;3.20;2.97;;;11.40;99.90;;;;;;4227962;28;20075;-82
2022/11/01 09:25:11;;;;;;;3.55;3.20;;;11.60;99.90;;;;;;4216173;28;20038;-83
2022/11/01 09:27:31;;;;;;;2.72;2.53;;;11.70;99.90;;;;;;4227553;28;20078;-81
2022/11/01 09:29:51;;;;;;;2.47;2.38;;;11.80;99.90;;;;;;4215184;28;20051;-82
2022/11/01 09:32:11;;;;;;;2.83;2.65;;;12.00;99.90;;;;;;4217437;28;20050;-82
2022/11/01 09:34:33;;;;;;;2.85;2.65;;;12.10;99.90;;;;;;4222053;28;20066;-83
2022/11/01 09:36:53;;;;;;;4.43;2.20;;;12.20;99.90;;;;;;4220144;28;20082;-82
2022/11/01 09:39:15;;;;;;;3.45;2.60;;;12.30;99.90;;;;;;4231233;28;20047;-83
2022/11/01 09:41:42;;;;;;;3.00;2.90;;;12.50;99.90;;;;;;4223370;28;20224;-83
2022/11/01 09:44:06;;;;;;;2.95;2.72;;;12.60;99.90;;;;;;4232294;28;20241;-83
2022/11/01 09:46:30;;;;;;;3.10;2.17;;;12.80;99.90;;;;;;4230782;28;20078;-83
2022/11/01 09:48:52;;;;;;;2.75;2.65;;;13.10;99.90;;;;;;4221142;28;20084;-83
2022/11/01 09:51:19;;;;;;;4.28;3.97;;;13.30;99.90;;;;;;4221510;28;20043;-82
2022/11/01 09:53:40;;;;;;;6.07;4.88;;;13.90;99.90;;;;;;4222274;28;20066;-83
2022/11/01 09:56:21;;;;;;;5.43;4.85;;;14.20;99.90;;;;;;4219308;28;20081;-83
2022/11/01 09:59:15;;;;;;;4.80;4.40;;;14.60;99.90;;;;;;4229600;28;20070;-83
2022/11/01 10:01:46;;;;;;;5.57;4.20;;;14.60;99.90;;;;;;4222866;28;20043;-83
2022/11/01 10:04:52;;;;;;;5.45;5.13;;;14.80;99.90;;;;;;4231942;28;20247;-83
2022/11/01 10:07:26;;;;;;;5.03;4.75;;;15.30;99.90;;;;;;4227518;28;20103;-83
2022/11/01 10:10:11;;;;;;;6.57;4.90;;;15.50;99.90;;;;;;4235610;28;20043;-83
2022/11/01 10:13:08;;;;;;;4.85;4.63;;;15.90;99.90;;;;;;4232546;28;20089;-83
2022/11/01 10:15:38;;;;;;;5.05;3.90;;;15.80;99.90;;;;;;4225571;28;20050;-83
2022/11/01 10:18:09;;;;;;;3.58;3.47;;;15.80;99.90;;;;;;4214829;28;20085;-83
2022/11/01 10:20:35;;;;;;;4.97;2.35;;;15.80;99.90;;;;;;4236989;28;20046;-84
2022/11/01 10:22:56;;;;;;;2.15;1.85;;;15.90;99.90;;;;;;4217432;28;20416;-84
2022/11/01 10:25:20;;;;;;;1.35;1.20;;;16.00;99.90;;;;;;4230750;28;20061;-84
2022/11/01 10:28:04;;;;;;;2.97;1.65;;;16.10;99.90;;;;;;4229310;28;20039;-84
2022/11/01 10:30:24;;;;;;;4.30;1.20;;;16.20;99.90;;;;;;4223560;28;20090;-85
2022/11/01 10:32:53;;;;;;;2.47;1.10;;;16.30;99.90;;;;;;4230345;28;20077;-83
2022/11/01 10:35:19;;;;;;;1.77;1.55;;;16.60;99.90;;;;;;4224454;28;20048;-84
2022/11/01 10:37:46;;;;;;;2.80;1.30;;;16.90;99.90;;;;;;4219218;28;20038;-85
2022/11/01 10:40:33;;;;;;;5.38;1.40;;;17.10;99.90;;;;;;4225141;28;20123;-84
2022/11/01 10:42:52;;;;;;;1.58;1.35;;;17.20;99.90;;;;;;4221258;28;20381;-84
2022/11/01 10:45:17;;;;;;;10.50;1.75;;;17.40;99.90;;;;;;4226734;28;20051;-84
2022/11/01 10:47:37;;;;;;;2.65;2.17;;;17.60;99.90;;;;;;4230197;28;20078;-85
2022/11/01 10:50:13;;;;;;;8.93;2.35;;;17.70;99.90;;;;;;4230822;28;20047;-85
2022/11/01 10:52:49;;;;;;;2.05;1.85;;;18.00;99.90;;;;;;4230115;28;20109;-84
2022/11/01 10:55:25;;;;;;;4.82;2.67;;;18.10;99.90;;;;;;4227614;28;20046;-85
2022/11/01 10:57:55;;;;;;;3.13;1.85;;;18.20;99.90;;;;;;4233227;28;20055;-85
2022/11/01 11:00:18;;;;;;;2.08;1.90;;;18.60;99.90;;;;;;4233306;28;20255;-85
2022/11/01 11:02:45;;;;;;;6.57;1.95;;;18.80;99.90;;;;;;4213936;28;20058;-85
2022/11/01 11:05:05;;;;;;;2.67;1.75;;;19.00;99.90;;;;;;4224479;28;20043;-85
2022/11/01 11:07:29;;;;;;;2.13;1.92;;;18.90;99.90;;;;;;4220697;28;20282;-88
2022/11/01 11:09:49;;;;;;;5.45;2.15;;;19.00;99.90;;;;;;4215749;28;20134;-88
2022/11/01 11:12:22;;;;;;;5.38;1.70;;;19.20;99.90;;;;;;4229023;28;20051;-88
2022/11/01 11:14:45;;;;;;;2.47;1.50;;;19.30;99.90;;;;;;4221819;28;20247;-88
2022/11/01 11:17:18;;;;;;;1.30;1.30;;;19.40;99.90;;;;;;4228913;28;20046;-88
2022/11/01 11:19:38;;;;;;;3.58;1.25;;;19.60;99.90;;;;;;4226569;28;20104;-88
2022/11/01 11:22:00;;;;;;;5.20;1.40;;;19.50;99.90;;;;;;4222223;28;20035;-88
2022/11/01 11:24:29;;;;;;;1.45;1.35;;;19.60;99.90;;;;;;4223131;28;20128;-89
2022/11/01 11:26:52;;;;;;;2.58;2.13;;;19.40;99.90;;;;;;4232545;28;20082;-88
2022/11/01 11:29:47;;;;;;;2.67;1.55;;;19.20;99.90;;;;;;4216793;28;20071;-85
2022/11/01 11:32:15;;;;;;;1.38;1.27;;;19.40;99.90;;;;;;4224250;28;20073;-85
2022/11/01 11:34:37;;;;;;;2.35;1.48;;;19.70;99.90;;;;;;4227226;28;20035;-85
2022/11/01 11:36:57;;;;;;;2.42;1.83;;;20.00;99.90;;;;;;4224919;28;20171;-85
2022/11/01 11:39:26;;;;;;;2.38;1.20;;;20.20;99.90;;;;;;4216112;28;20282;-85
2022/11/01 11:41:46;;;;;;;3.35;1.05;;;20.50;99.90;;;;;;4221963;28;20074;-85
2022/11/01 11:44:34;;;;;;;5.18;1.10;;;20.20;99.90;;;;;;4225850;28;20097;-85
2022/11/01 11:46:57;;;;;;;2.78;1.20;;;20.60;99.90;;;;;;4229026;28;20082;-85
2022/11/01 11:49:26;;;;;;;2.67;1.23;;;20.70;99.90;;;;;;4233384;28;20059;-85
2022/11/01 11:51:46;;;;;;;4.53;1.30;;;20.70;99.90;;;;;;4230479;28;20295;-85
2022/11/01 11:54:06;;;;;;;3.90;1.10;;;21.00;99.90;;;;;;4226669;28;20111;-86
2022/11/01 11:56:25;;;;;;;1.25;1.20;;;21.30;99.90;;;;;;4225092;28;20084;-85
2022/11/01 11:58:47;;;;;;;3.03;1.30;;;21.40;99.90;;;;;;4220966;28;20284;-86
2022/11/01 12:01:14;;;;;;;1.27;1.00;;;21.50;99.90;;;;;;4229243;28;20082;-85
2022/11/01 12:03:46;;;;;;;1.40;1.00;;;21.30;99.90;;;;;;4227755;28;20051;-85
2022/11/01 12:06:07;;;;;;;1.50;1.10;;;21.60;99.90;;;;;;4213362;28;20039;-85
2022/11/01 12:08:48;;;;;;;3.13;1.45;;;21.30;99.90;;;;;;4225196;28;20047;-85
2022/11/01 12:11:08;;;;;;;1.23;1.05;;;21.50;99.90;;;;;;4228284;28;20290;-85
2022/11/01 12:13:40;;;;;;;4.60;1.30;;;21.90;99.90;;;;;;4222154;28;20061;-85
2022/11/01 12:16:16;;;;;;;1.37;0.80;;;21.20;99.90;;;;;;4231627;28;20055;-86
2022/11/01 12:18:52;;;;;;;1.13;0.90;;;21.20;99.90;;;;;;4213456;28;20051;-85
2022/11/01 12:21:23;;;;;;;2.05;0.80;;;21.10;99.90;;;;;;4224809;28;20070;-85
2022/11/01 12:23:44;;;;;;;0.80;0.80;;;21.10;99.90;;;;;;4233867;28;20051;-85
2022/11/01 12:26:07;;;;;;;3.15;1.10;;;20.70;99.90;;;;;;4220068;28;20094;-85
2022/11/01 12:28:42;;;;;;;1.40;0.80;;;20.50;99.90;;;;;;4223051;28;20047;-85
2022/11/01 12:31:13;;;;;;;2.58;0.90;;;20.70;99.90;;;;;;4212184;28;20118;-86
2022/11/01 12:34:02;;;;;;;5.43;1.50;;;20.70;99.90;;;;;;4224155;28;20058;-85
2022/11/01 12:36:30;;;;;;;8.32;1.33;;;20.70;99.90;;;;;;4230267;28;20086;-86
2022/11/01 12:39:02;;;;;;;1.55;0.90;;;21.00;99.90;;;;;;4229857;28;20047;-86
2022/11/01 12:41:28;;;;;;;1.35;0.90;;;20.70;99.90;;;;;;4229708;28;20089;-85